sensor_id;sensor_type;location;lat;lon;timestamp;P1;durP1;ratioP1;P2;durP2;ratioP2
21786;SDS011;11055;50.870;4.316;2023-08-06T00:00:19;5.20;;;2.38;;
21786;SDS011;11055;50.870;4.316;2023-08-06T00:02:44;6.20;;;2.28;;
21786;SDS011;11055;50.870;4.316;2023-08-06T00:05:10;4.93;;;2.05;;
21786;SDS011;11055;50.870;4.316;2023-08-06T00:07:36;4.72;;;2.25;;
21786;SDS011;11055;50.870;4.316;2023-08-06T00:10:01;4.35;;;2.30;;
21786;SDS011;11055;50.870;4.316;2023-08-06T00:12:27;4.75;;;2.08;;
21786;SDS011;11055;50.870;4.316;2023-08-06T00:14:53;5.03;;;2.15;;
21786;SDS011;11055;50.870;4.316;2023-08-06T00:17:18;5.85;;;2.60;;
21786;SDS011;11055;50.870;4.316;2023-08-06T00:19:44;5.15;;;2.65;;
21786;SDS011;11055;50.870;4.316;2023-08-06T00:22:10;5.90;;;2.60;;
21786;SDS011;11055;50.870;4.316;2023-08-06T00:24:36;5.03;;;2.83;;
21786;SDS011;11055;50.870;4.316;2023-08-06T00:27:01;5.35;;;3.03;;
21786;SDS011;11055;50.870;4.316;2023-08-06T00:29:28;8.48;;;3.45;;
21786;SDS011;11055;50.870;4.316;2023-08-06T00:31:53;6.60;;;3.60;;
21786;SDS011;11055;50.870;4.316;2023-08-06T00:34:19;6.65;;;3.55;;
21786;SDS011;11055;50.870;4.316;2023-08-06T00:36:45;4.10;;;3.42;;
21786;SDS011;11055;50.870;4.316;2023-08-06T00:39:11;5.70;;;3.78;;
21786;SDS011;11055;50.870;4.316;2023-08-06T00:41:36;6.25;;;3.72;;
21786;SDS011;11055;50.870;4.316;2023-08-06T00:44:02;5.55;;;3.65;;
21786;SDS011;11055;50.870;4.316;2023-08-06T00:46:28;5.80;;;3.50;;
21786;SDS011;11055;50.870;4.316;2023-08-06T00:48:54;7.68;;;4.35;;
21786;SDS011;11055;50.870;4.316;2023-08-06T00:51:21;5.43;;;4.03;;
21786;SDS011;11055;50.870;4.316;2023-08-06T00:53:48;6.60;;;3.97;;
21786;SDS011;11055;50.870;4.316;2023-08-06T00:56:15;8.05;;;4.82;;
21786;SDS011;11055;50.870;4.316;2023-08-06T00:58:41;8.88;;;4.22;;
21786;SDS011;11055;50.870;4.316;2023-08-06T01:01:07;11.13;;;4.78;;
21786;SDS011;11055;50.870;4.316;2023-08-06T01:03:32;7.35;;;4.78;;
21786;SDS011;11055;50.870;4.316;2023-08-06T01:05:58;6.13;;;4.75;;
21786;SDS011;11055;50.870;4.316;2023-08-06T01:08:30;7.22;;;5.13;;
21786;SDS011;11055;50.870;4.316;2023-08-06T01:11:33;7.60;;;5.68;;
21786;SDS011;11055;50.870;4.316;2023-08-06T01:16:35;10.18;;;5.93;;
21786;SDS011;11055;50.870;4.316;2023-08-06T01:19:02;7.28;;;5.90;;
21786;SDS011;11055;50.870;4.316;2023-08-06T01:21:27;11.20;;;6.30;;
21786;SDS011;11055;50.870;4.316;2023-08-06T01:23:53;8.38;;;6.00;;
21786;SDS011;11055;50.870;4.316;2023-08-06T01:26:22;11.52;;;6.55;;
21786;SDS011;11055;50.870;4.316;2023-08-06T01:31:26;9.63;;;5.80;;
21786;SDS011;11055;50.870;4.316;2023-08-06T01:33:55;10.23;;;6.03;;
21786;SDS011;11055;50.870;4.316;2023-08-06T01:36:23;9.48;;;5.88;;
21786;SDS011;11055;50.870;4.316;2023-08-06T01:38:51;11.48;;;6.45;;
21786;SDS011;11055;50.870;4.316;2023-08-06T01:41:18;11.50;;;5.82;;
21786;SDS011;11055;50.870;4.316;2023-08-06T01:43:43;8.38;;;5.47;;
21786;SDS011;11055;50.870;4.316;2023-08-06T01:46:09;9.55;;;5.32;;
21786;SDS011;11055;50.870;4.316;2023-08-06T01:48:35;9.93;;;5.68;;
21786;SDS011;11055;50.870;4.316;2023-08-06T01:51:00;10.13;;;5.15;;
21786;SDS011;11055;50.870;4.316;2023-08-06T01:53:28;8.57;;;5.10;;
21786;SDS011;11055;50.870;4.316;2023-08-06T01:55:54;6.95;;;4.53;;
21786;SDS011;11055;50.870;4.316;2023-08-06T01:58:19;9.15;;;4.50;;
21786;SDS011;11055;50.870;4.316;2023-08-06T02:00:45;8.23;;;4.15;;
21786;SDS011;11055;50.870;4.316;2023-08-06T02:03:11;9.18;;;4.50;;
21786;SDS011;11055;50.870;4.316;2023-08-06T02:05:36;7.63;;;3.78;;
21786;SDS011;11055;50.870;4.316;2023-08-06T02:08:02;9.85;;;3.10;;
21786;SDS011;11055;50.870;4.316;2023-08-06T02:10:27;9.50;;;2.88;;
21786;SDS011;11055;50.870;4.316;2023-08-06T02:12:53;5.05;;;2.80;;
21786;SDS011;11055;50.870;4.316;2023-08-06T02:15:19;6.43;;;2.67;;
21786;SDS011;11055;50.870;4.316;2023-08-06T02:17:44;9.55;;;2.63;;
21786;SDS011;11055;50.870;4.316;2023-08-06T02:20:10;6.43;;;2.20;;
21786;SDS011;11055;50.870;4.316;2023-08-06T02:22:36;7.43;;;2.38;;
21786;SDS011;11055;50.870;4.316;2023-08-06T02:25:01;8.32;;;2.42;;
21786;SDS011;11055;50.870;4.316;2023-08-06T02:27:27;5.18;;;1.90;;
21786;SDS011;11055;50.870;4.316;2023-08-06T02:29:53;5.70;;;1.83;;
21786;SDS011;11055;50.870;4.316;2023-08-06T02:32:18;6.57;;;2.25;;
21786;SDS011;11055;50.870;4.316;2023-08-06T02:34:44;4.93;;;1.65;;
21786;SDS011;11055;50.870;4.316;2023-08-06T02:37:10;8.38;;;2.40;;
21786;SDS011;11055;50.870;4.316;2023-08-06T02:39:35;9.30;;;2.42;;
21786;SDS011;11055;50.870;4.316;2023-08-06T02:42:04;6.47;;;2.03;;
21786;SDS011;11055;50.870;4.316;2023-08-06T02:44:33;5.72;;;1.85;;
21786;SDS011;11055;50.870;4.316;2023-08-06T02:46:59;5.85;;;1.67;;
21786;SDS011;11055;50.870;4.316;2023-08-06T02:49:25;6.85;;;1.90;;
21786;SDS011;11055;50.870;4.316;2023-08-06T02:51:51;10.85;;;2.13;;
21786;SDS011;11055;50.870;4.316;2023-08-06T02:54:20;10.48;;;2.30;;
21786;SDS011;11055;50.870;4.316;2023-08-06T02:56:46;8.02;;;2.30;;
21786;SDS011;11055;50.870;4.316;2023-08-06T02:59:12;9.13;;;2.88;;
21786;SDS011;11055;50.870;4.316;2023-08-06T03:01:38;8.65;;;3.25;;
21786;SDS011;11055;50.870;4.316;2023-08-06T03:04:04;5.93;;;3.15;;
21786;SDS011;11055;50.870;4.316;2023-08-06T03:06:30;7.15;;;4.40;;
21786;SDS011;11055;50.870;4.316;2023-08-06T03:08:56;11.15;;;6.97;;
21786;SDS011;11055;50.870;4.316;2023-08-06T03:11:21;11.85;;;7.35;;
21786;SDS011;11055;50.870;4.316;2023-08-06T03:13:48;11.55;;;7.60;;
21786;SDS011;11055;50.870;4.316;2023-08-06T03:16:14;16.08;;;10.52;;
21786;SDS011;11055;50.870;4.316;2023-08-06T03:18:40;15.95;;;11.55;;
21786;SDS011;11055;50.870;4.316;2023-08-06T03:21:05;18.48;;;12.27;;
21786;SDS011;11055;50.870;4.316;2023-08-06T03:23:31;14.85;;;11.88;;
21786;SDS011;11055;50.870;4.316;2023-08-06T03:26:03;16.83;;;13.00;;
21786;SDS011;11055;50.870;4.316;2023-08-06T03:28:29;18.10;;;12.27;;
21786;SDS011;11055;50.870;4.316;2023-08-06T03:31:01;15.68;;;11.60;;
21786;SDS011;11055;50.870;4.316;2023-08-06T03:33:27;11.05;;;9.90;;
21786;SDS011;11055;50.870;4.316;2023-08-06T03:35:53;8.80;;;7.47;;
21786;SDS011;11055;50.870;4.316;2023-08-06T03:38:19;7.22;;;6.53;;
21786;SDS011;11055;50.870;4.316;2023-08-06T03:40:46;5.85;;;4.32;;
21786;SDS011;11055;50.870;4.316;2023-08-06T03:43:11;4.03;;;2.65;;
21786;SDS011;11055;50.870;4.316;2023-08-06T03:45:37;2.70;;;2.40;;
21786;SDS011;11055;50.870;4.316;2023-08-06T03:48:03;2.28;;;2.00;;
21786;SDS011;11055;50.870;4.316;2023-08-06T03:50:29;2.90;;;1.23;;
21786;SDS011;11055;50.870;4.316;2023-08-06T03:52:55;1.77;;;1.23;;
21786;SDS011;11055;50.870;4.316;2023-08-06T03:55:20;2.03;;;1.20;;
21786;SDS011;11055;50.870;4.316;2023-08-06T03:57:46;6.13;;;1.40;;
21786;SDS011;11055;50.870;4.316;2023-08-06T04:00:12;5.00;;;1.58;;
21786;SDS011;11055;50.870;4.316;2023-08-06T04:02:38;3.17;;;1.20;;
21786;SDS011;11055;50.870;4.316;2023-08-06T04:05:04;2.63;;;1.20;;
21786;SDS011;11055;50.870;4.316;2023-08-06T04:07:30;3.63;;;1.25;;
21786;SDS011;11055;50.870;4.316;2023-08-06T04:09:59;1.67;;;0.98;;
21786;SDS011;11055;50.870;4.316;2023-08-06T04:12:26;2.75;;;1.10;;
21786;SDS011;11055;50.870;4.316;2023-08-06T04:14:53;1.67;;;1.10;;
21786;SDS011;11055;50.870;4.316;2023-08-06T04:17:19;2.28;;;1.30;;
21786;SDS011;11055;50.870;4.316;2023-08-06T04:19:50;2.17;;;1.50;;
21786;SDS011;11055;50.870;4.316;2023-08-06T04:22:17;1.98;;;1.75;;
21786;SDS011;11055;50.870;4.316;2023-08-06T04:24:43;2.45;;;1.70;;
21786;SDS011;11055;50.870;4.316;2023-08-06T04:27:10;2.45;;;2.17;;
21786;SDS011;11055;50.870;4.316;2023-08-06T04:29:36;4.40;;;2.38;;
21786;SDS011;11055;50.870;4.316;2023-08-06T04:32:06;4.78;;;2.60;;
21786;SDS011;11055;50.870;4.316;2023-08-06T04:34:33;2.60;;;2.40;;
21786;SDS011;11055;50.870;4.316;2023-08-06T04:37:00;8.90;;;2.92;;
21786;SDS011;11055;50.870;4.316;2023-08-06T04:39:26;5.28;;;2.67;;
21786;SDS011;11055;50.870;4.316;2023-08-06T04:41:52;5.60;;;2.70;;
21786;SDS011;11055;50.870;4.316;2023-08-06T04:44:17;6.80;;;3.10;;
21786;SDS011;11055;50.870;4.316;2023-08-06T04:46:43;5.63;;;3.28;;
21786;SDS011;11055;50.870;4.316;2023-08-06T04:49:09;5.63;;;4.28;;
21786;SDS011;11055;50.870;4.316;2023-08-06T04:51:34;4.65;;;3.45;;
21786;SDS011;11055;50.870;4.316;2023-08-06T04:54:00;8.65;;;3.58;;
21786;SDS011;11055;50.870;4.316;2023-08-06T04:56:26;5.63;;;3.83;;
21786;SDS011;11055;50.870;4.316;2023-08-06T04:58:52;6.32;;;3.78;;
21786;SDS011;11055;50.870;4.316;2023-08-06T05:01:17;8.63;;;3.92;;
21786;SDS011;11055;50.870;4.316;2023-08-06T05:03:43;6.65;;;4.35;;
21786;SDS011;11055;50.870;4.316;2023-08-06T05:06:09;4.82;;;3.67;;
21786;SDS011;11055;50.870;4.316;2023-08-06T05:08:35;7.57;;;3.80;;
21786;SDS011;11055;50.870;4.316;2023-08-06T05:11:01;7.03;;;3.60;;
21786;SDS011;11055;50.870;4.316;2023-08-06T05:13:27;5.47;;;3.53;;
21786;SDS011;11055;50.870;4.316;2023-08-06T05:15:53;8.48;;;3.58;;
21786;SDS011;11055;50.870;4.316;2023-08-06T05:18:19;6.07;;;3.25;;
21786;SDS011;11055;50.870;4.316;2023-08-06T05:20:45;5.88;;;3.95;;
21786;SDS011;11055;50.870;4.316;2023-08-06T05:23:11;8.20;;;4.20;;
21786;SDS011;11055;50.870;4.316;2023-08-06T05:25:37;7.40;;;4.07;;
21786;SDS011;11055;50.870;4.316;2023-08-06T05:28:03;11.05;;;4.05;;
21786;SDS011;11055;50.870;4.316;2023-08-06T05:30:29;10.30;;;3.85;;
21786;SDS011;11055;50.870;4.316;2023-08-06T05:32:55;9.57;;;4.00;;
21786;SDS011;11055;50.870;4.316;2023-08-06T05:35:21;10.05;;;3.90;;
21786;SDS011;11055;50.870;4.316;2023-08-06T05:37:47;8.48;;;3.50;;
21786;SDS011;11055;50.870;4.316;2023-08-06T05:40:13;10.00;;;3.90;;
21786;SDS011;11055;50.870;4.316;2023-08-06T05:42:39;9.75;;;3.33;;
21786;SDS011;11055;50.870;4.316;2023-08-06T05:45:05;11.77;;;3.83;;
21786;SDS011;11055;50.870;4.316;2023-08-06T05:47:31;10.40;;;3.80;;
21786;SDS011;11055;50.870;4.316;2023-08-06T05:49:57;6.03;;;3.80;;
21786;SDS011;11055;50.870;4.316;2023-08-06T05:52:22;11.05;;;3.92;;
21786;SDS011;11055;50.870;4.316;2023-08-06T05:54:48;11.93;;;4.60;;
21786;SDS011;11055;50.870;4.316;2023-08-06T05:57:14;10.45;;;4.40;;
21786;SDS011;11055;50.870;4.316;2023-08-06T05:59:40;9.90;;;4.35;;
21786;SDS011;11055;50.870;4.316;2023-08-06T06:02:06;13.77;;;4.38;;
21786;SDS011;11055;50.870;4.316;2023-08-06T06:04:32;13.20;;;4.40;;
21786;SDS011;11055;50.870;4.316;2023-08-06T06:06:57;10.10;;;4.35;;
21786;SDS011;11055;50.870;4.316;2023-08-06T06:09:23;10.35;;;4.45;;
21786;SDS011;11055;50.870;4.316;2023-08-06T06:11:49;12.35;;;4.20;;
21786;SDS011;11055;50.870;4.316;2023-08-06T06:14:15;16.33;;;4.78;;
21786;SDS011;11055;50.870;4.316;2023-08-06T06:16:41;11.18;;;4.30;;
21786;SDS011;11055;50.870;4.316;2023-08-06T06:19:07;9.75;;;4.38;;
21786;SDS011;11055;50.870;4.316;2023-08-06T06:21:33;8.82;;;3.85;;
21786;SDS011;11055;50.870;4.316;2023-08-06T06:23:58;9.02;;;4.07;;
21786;SDS011;11055;50.870;4.316;2023-08-06T06:26:24;8.60;;;4.22;;
21786;SDS011;11055;50.870;4.316;2023-08-06T06:28:50;10.77;;;4.50;;
21786;SDS011;11055;50.870;4.316;2023-08-06T06:31:15;8.82;;;4.18;;
21786;SDS011;11055;50.870;4.316;2023-08-06T06:33:41;7.43;;;4.10;;
21786;SDS011;11055;50.870;4.316;2023-08-06T06:36:06;8.70;;;3.90;;
21786;SDS011;11055;50.870;4.316;2023-08-06T06:38:33;10.48;;;4.40;;
21786;SDS011;11055;50.870;4.316;2023-08-06T06:40:59;8.90;;;4.60;;
21786;SDS011;11055;50.870;4.316;2023-08-06T06:43:25;8.27;;;4.10;;
21786;SDS011;11055;50.870;4.316;2023-08-06T06:45:57;8.57;;;4.03;;
21786;SDS011;11055;50.870;4.316;2023-08-06T06:48:26;9.77;;;3.83;;
21786;SDS011;11055;50.870;4.316;2023-08-06T06:50:57;11.02;;;4.40;;
21786;SDS011;11055;50.870;4.316;2023-08-06T06:53:23;10.23;;;4.53;;
21786;SDS011;11055;50.870;4.316;2023-08-06T06:55:52;10.20;;;4.28;;
21786;SDS011;11055;50.870;4.316;2023-08-06T06:58:19;11.30;;;3.70;;
21786;SDS011;11055;50.870;4.316;2023-08-06T07:00:45;6.97;;;3.00;;
21786;SDS011;11055;50.870;4.316;2023-08-06T07:03:11;7.97;;;2.95;;
21786;SDS011;11055;50.870;4.316;2023-08-06T07:05:37;11.02;;;2.88;;
21786;SDS011;11055;50.870;4.316;2023-08-06T07:08:03;10.30;;;2.75;;
21786;SDS011;11055;50.870;4.316;2023-08-06T07:10:28;10.07;;;2.20;;
21786;SDS011;11055;50.870;4.316;2023-08-06T07:12:54;9.80;;;2.42;;
21786;SDS011;11055;50.870;4.316;2023-08-06T07:15:20;6.72;;;2.10;;
21786;SDS011;11055;50.870;4.316;2023-08-06T07:17:45;6.20;;;1.80;;
21786;SDS011;11055;50.870;4.316;2023-08-06T07:20:11;7.32;;;1.92;;
21786;SDS011;11055;50.870;4.316;2023-08-06T07:22:36;7.30;;;1.52;;
21786;SDS011;11055;50.870;4.316;2023-08-06T07:25:02;9.90;;;2.13;;
21786;SDS011;11055;50.870;4.316;2023-08-06T07:27:28;8.75;;;1.52;;
21786;SDS011;11055;50.870;4.316;2023-08-06T07:29:54;9.38;;;1.92;;
21786;SDS011;11055;50.870;4.316;2023-08-06T07:32:19;8.48;;;1.85;;
21786;SDS011;11055;50.870;4.316;2023-08-06T07:34:45;8.40;;;1.70;;
21786;SDS011;11055;50.870;4.316;2023-08-06T07:37:10;9.70;;;1.58;;
21786;SDS011;11055;50.870;4.316;2023-08-06T07:39:36;11.43;;;1.85;;
21786;SDS011;11055;50.870;4.316;2023-08-06T07:42:04;15.05;;;2.75;;
21786;SDS011;11055;50.870;4.316;2023-08-06T07:44:32;11.90;;;2.05;;
21786;SDS011;11055;50.870;4.316;2023-08-06T07:46:57;15.00;;;2.20;;
21786;SDS011;11055;50.870;4.316;2023-08-06T07:49:23;7.45;;;1.48;;
21786;SDS011;11055;50.870;4.316;2023-08-06T07:51:49;9.27;;;2.35;;
21786;SDS011;11055;50.870;4.316;2023-08-06T07:54:16;9.65;;;1.42;;
21786;SDS011;11055;50.870;4.316;2023-08-06T07:56:42;9.80;;;1.60;;
21786;SDS011;11055;50.870;4.316;2023-08-06T07:59:08;5.70;;;1.70;;
21786;SDS011;11055;50.870;4.316;2023-08-06T08:01:34;12.40;;;2.30;;
21786;SDS011;11055;50.870;4.316;2023-08-06T08:03:59;10.68;;;2.33;;
21786;SDS011;11055;50.870;4.316;2023-08-06T08:06:25;3.90;;;1.70;;
21786;SDS011;11055;50.870;4.316;2023-08-06T08:08:51;9.45;;;1.88;;
21786;SDS011;11055;50.870;4.316;2023-08-06T08:11:17;8.93;;;1.63;;
21786;SDS011;11055;50.870;4.316;2023-08-06T08:13:43;8.57;;;1.73;;
21786;SDS011;11055;50.870;4.316;2023-08-06T08:16:09;7.82;;;2.22;;
21786;SDS011;11055;50.870;4.316;2023-08-06T08:18:35;7.22;;;1.63;;
21786;SDS011;11055;50.870;4.316;2023-08-06T08:21:00;6.18;;;1.60;;
21786;SDS011;11055;50.870;4.316;2023-08-06T08:23:26;8.82;;;1.88;;
21786;SDS011;11055;50.870;4.316;2023-08-06T08:25:52;6.03;;;1.73;;
21786;SDS011;11055;50.870;4.316;2023-08-06T08:28:17;8.30;;;1.90;;
21786;SDS011;11055;50.870;4.316;2023-08-06T08:30:43;3.78;;;1.60;;
21786;SDS011;11055;50.870;4.316;2023-08-06T08:33:09;7.05;;;1.67;;
21786;SDS011;11055;50.870;4.316;2023-08-06T08:35:35;8.88;;;2.33;;
21786;SDS011;11055;50.870;4.316;2023-08-06T08:38:01;11.32;;;1.95;;
21786;SDS011;11055;50.870;4.316;2023-08-06T08:40:29;9.07;;;2.30;;
21786;SDS011;11055;50.870;4.316;2023-08-06T08:42:57;8.65;;;1.98;;
21786;SDS011;11055;50.870;4.316;2023-08-06T08:45:26;9.75;;;2.53;;
21786;SDS011;11055;50.870;4.316;2023-08-06T08:47:54;9.95;;;2.50;;
21786;SDS011;11055;50.870;4.316;2023-08-06T08:50:19;7.72;;;1.95;;
21786;SDS011;11055;50.870;4.316;2023-08-06T08:52:46;7.72;;;1.90;;
21786;SDS011;11055;50.870;4.316;2023-08-06T08:55:14;7.95;;;2.20;;
21786;SDS011;11055;50.870;4.316;2023-08-06T08:57:41;6.00;;;1.60;;
21786;SDS011;11055;50.870;4.316;2023-08-06T09:00:07;8.55;;;2.15;;
21786;SDS011;11055;50.870;4.316;2023-08-06T09:02:33;9.80;;;1.95;;
21786;SDS011;11055;50.870;4.316;2023-08-06T09:04:59;7.43;;;1.88;;
21786;SDS011;11055;50.870;4.316;2023-08-06T09:07:27;10.10;;;1.80;;
21786;SDS011;11055;50.870;4.316;2023-08-06T09:10:02;5.57;;;1.50;;
21786;SDS011;11055;50.870;4.316;2023-08-06T09:12:31;8.55;;;1.83;;
21786;SDS011;11055;50.870;4.316;2023-08-06T09:14:57;9.63;;;2.10;;
21786;SDS011;11055;50.870;4.316;2023-08-06T09:17:23;11.02;;;2.10;;
21786;SDS011;11055;50.870;4.316;2023-08-06T09:19:49;6.72;;;1.90;;
21786;SDS011;11055;50.870;4.316;2023-08-06T09:22:15;6.50;;;2.20;;
21786;SDS011;11055;50.870;4.316;2023-08-06T09:24:41;13.32;;;2.17;;
21786;SDS011;11055;50.870;4.316;2023-08-06T09:27:10;6.22;;;1.60;;
21786;SDS011;11055;50.870;4.316;2023-08-06T09:29:40;13.60;;;2.28;;
21786;SDS011;11055;50.870;4.316;2023-08-06T09:32:07;6.78;;;1.95;;
21786;SDS011;11055;50.870;4.316;2023-08-06T09:34:32;7.93;;;2.35;;
21786;SDS011;11055;50.870;4.316;2023-08-06T09:36:58;9.20;;;2.47;;
21786;SDS011;11055;50.870;4.316;2023-08-06T09:39:27;13.48;;;2.50;;
21786;SDS011;11055;50.870;4.316;2023-08-06T09:41:58;8.05;;;2.20;;
21786;SDS011;11055;50.870;4.316;2023-08-06T09:44:26;9.90;;;2.50;;
21786;SDS011;11055;50.870;4.316;2023-08-06T09:46:54;9.43;;;2.60;;
21786;SDS011;11055;50.870;4.316;2023-08-06T09:49:24;10.73;;;2.50;;
21786;SDS011;11055;50.870;4.316;2023-08-06T09:51:51;7.60;;;2.13;;
21786;SDS011;11055;50.870;4.316;2023-08-06T09:54:20;8.25;;;2.13;;
21786;SDS011;11055;50.870;4.316;2023-08-06T09:56:49;10.70;;;2.40;;
21786;SDS011;11055;50.870;4.316;2023-08-06T09:59:15;7.82;;;2.03;;
21786;SDS011;11055;50.870;4.316;2023-08-06T10:01:43;7.80;;;2.03;;
21786;SDS011;11055;50.870;4.316;2023-08-06T10:04:10;9.05;;;2.15;;
21786;SDS011;11055;50.870;4.316;2023-08-06T10:06:38;8.45;;;2.05;;
21786;SDS011;11055;50.870;4.316;2023-08-06T10:09:04;7.38;;;2.17;;
21786;SDS011;11055;50.870;4.316;2023-08-06T10:11:30;8.73;;;1.92;;
21786;SDS011;11055;50.870;4.316;2023-08-06T10:16:38;7.70;;;1.98;;
21786;SDS011;11055;50.870;4.316;2023-08-06T10:19:05;5.05;;;1.75;;
21786;SDS011;11055;50.870;4.316;2023-08-06T10:21:34;6.13;;;1.48;;
21786;SDS011;11055;50.870;4.316;2023-08-06T10:24:00;9.98;;;1.73;;
21786;SDS011;11055;50.870;4.316;2023-08-06T10:26:27;11.15;;;2.03;;
21786;SDS011;11055;50.870;4.316;2023-08-06T10:28:54;6.80;;;1.35;;
21786;SDS011;11055;50.870;4.316;2023-08-06T10:31:20;7.40;;;1.83;;
21786;SDS011;11055;50.870;4.316;2023-08-06T10:34:05;6.28;;;1.70;;
21786;SDS011;11055;50.870;4.316;2023-08-06T10:36:32;6.68;;;2.20;;
21786;SDS011;11055;50.870;4.316;2023-08-06T10:38:58;8.75;;;2.13;;
21786;SDS011;11055;50.870;4.316;2023-08-06T10:41:29;10.13;;;2.40;;
21786;SDS011;11055;50.870;4.316;2023-08-06T10:44:08;4.55;;;1.63;;
21786;SDS011;11055;50.870;4.316;2023-08-06T10:46:35;5.97;;;2.22;;
21786;SDS011;11055;50.870;4.316;2023-08-06T10:49:02;7.95;;;2.53;;
21786;SDS011;11055;50.870;4.316;2023-08-06T10:51:28;6.57;;;2.17;;
21786;SDS011;11055;50.870;4.316;2023-08-06T10:53:54;7.75;;;2.28;;
21786;SDS011;11055;50.870;4.316;2023-08-06T10:56:21;8.07;;;2.65;;
21786;SDS011;11055;50.870;4.316;2023-08-06T10:58:50;12.32;;;3.20;;
21786;SDS011;11055;50.870;4.316;2023-08-06T11:01:17;13.30;;;2.97;;
21786;SDS011;11055;50.870;4.316;2023-08-06T11:03:44;9.80;;;2.85;;
21786;SDS011;11055;50.870;4.316;2023-08-06T11:06:16;11.05;;;2.25;;
21786;SDS011;11055;50.870;4.316;2023-08-06T11:08:47;7.03;;;2.45;;
21786;SDS011;11055;50.870;4.316;2023-08-06T11:11:14;9.63;;;2.25;;
21786;SDS011;11055;50.870;4.316;2023-08-06T11:13:44;7.65;;;2.17;;
21786;SDS011;11055;50.870;4.316;2023-08-06T11:16:19;9.13;;;2.25;;
21786;SDS011;11055;50.870;4.316;2023-08-06T11:18:46;7.78;;;2.10;;
21786;SDS011;11055;50.870;4.316;2023-08-06T11:21:12;9.20;;;2.40;;
21786;SDS011;11055;50.870;4.316;2023-08-06T11:23:38;5.53;;;1.88;;
21786;SDS011;11055;50.870;4.316;2023-08-06T11:26:05;10.57;;;2.83;;
21786;SDS011;11055;50.870;4.316;2023-08-06T11:28:31;7.93;;;2.10;;
21786;SDS011;11055;50.870;4.316;2023-08-06T11:30:57;8.68;;;2.38;;
21786;SDS011;11055;50.870;4.316;2023-08-06T11:33:26;7.63;;;2.28;;
21786;SDS011;11055;50.870;4.316;2023-08-06T11:35:53;8.98;;;2.22;;
21786;SDS011;11055;50.870;4.316;2023-08-06T11:38:20;7.28;;;2.03;;
21786;SDS011;11055;50.870;4.316;2023-08-06T11:40:49;8.23;;;1.88;;
21786;SDS011;11055;50.870;4.316;2023-08-06T11:43:16;4.88;;;0.90;;
21786;SDS011;11055;50.870;4.316;2023-08-06T11:45:47;5.82;;;2.10;;
21786;SDS011;11055;50.870;4.316;2023-08-06T11:48:14;5.88;;;1.50;;
21786;SDS011;11055;50.870;4.316;2023-08-06T11:50:40;8.60;;;2.40;;
21786;SDS011;11055;50.870;4.316;2023-08-06T11:53:05;6.22;;;1.85;;
21786;SDS011;11055;50.870;4.316;2023-08-06T11:55:31;6.35;;;1.85;;
21786;SDS011;11055;50.870;4.316;2023-08-06T11:57:58;7.40;;;1.45;;
21786;SDS011;11055;50.870;4.316;2023-08-06T12:00:28;7.57;;;2.08;;
21786;SDS011;11055;50.870;4.316;2023-08-06T12:02:54;7.20;;;1.48;;
21786;SDS011;11055;50.870;4.316;2023-08-06T12:05:22;8.40;;;2.08;;
21786;SDS011;11055;50.870;4.316;2023-08-06T12:07:53;8.50;;;1.75;;
21786;SDS011;11055;50.870;4.316;2023-08-06T12:10:21;6.05;;;1.75;;
21786;SDS011;11055;50.870;4.316;2023-08-06T12:12:49;6.70;;;1.95;;
21786;SDS011;11055;50.870;4.316;2023-08-06T12:15:15;7.97;;;1.83;;
21786;SDS011;11055;50.870;4.316;2023-08-06T12:17:41;7.38;;;2.20;;
21786;SDS011;11055;50.870;4.316;2023-08-06T12:20:07;7.50;;;2.17;;
21786;SDS011;11055;50.870;4.316;2023-08-06T12:22:34;10.02;;;2.03;;
21786;SDS011;11055;50.870;4.316;2023-08-06T12:25:03;7.47;;;2.08;;
21786;SDS011;11055;50.870;4.316;2023-08-06T12:27:36;7.72;;;1.95;;
21786;SDS011;11055;50.870;4.316;2023-08-06T12:30:03;8.48;;;2.67;;
21786;SDS011;11055;50.870;4.316;2023-08-06T12:32:30;6.13;;;2.13;;
21786;SDS011;11055;50.870;4.316;2023-08-06T12:34:57;8.80;;;2.20;;
21786;SDS011;11055;50.870;4.316;2023-08-06T12:37:23;9.90;;;2.20;;
21786;SDS011;11055;50.870;4.316;2023-08-06T12:39:50;8.98;;;2.08;;
21786;SDS011;11055;50.870;4.316;2023-08-06T12:42:16;6.25;;;1.85;;
21786;SDS011;11055;50.870;4.316;2023-08-06T12:44:41;10.65;;;2.28;;
21786;SDS011;11055;50.870;4.316;2023-08-06T12:47:07;9.18;;;2.10;;
21786;SDS011;11055;50.870;4.316;2023-08-06T12:49:33;5.18;;;1.42;;
21786;SDS011;11055;50.870;4.316;2023-08-06T12:51:59;5.68;;;1.60;;
21786;SDS011;11055;50.870;4.316;2023-08-06T12:54:25;8.27;;;1.80;;
21786;SDS011;11055;50.870;4.316;2023-08-06T12:56:51;10.07;;;2.03;;
21786;SDS011;11055;50.870;4.316;2023-08-06T12:59:17;9.90;;;2.05;;
21786;SDS011;11055;50.870;4.316;2023-08-06T13:01:43;12.65;;;2.28;;
21786;SDS011;11055;50.870;4.316;2023-08-06T13:04:09;7.22;;;2.10;;
21786;SDS011;11055;50.870;4.316;2023-08-06T13:06:36;8.60;;;2.20;;
21786;SDS011;11055;50.870;4.316;2023-08-06T13:09:20;14.32;;;5.60;;
21786;SDS011;11055;50.870;4.316;2023-08-06T13:11:46;3.60;;;1.67;;
21786;SDS011;11055;50.870;4.316;2023-08-06T13:14:15;7.88;;;1.77;;
21786;SDS011;11055;50.870;4.316;2023-08-06T13:16:41;7.57;;;2.03;;
21786;SDS011;11055;50.870;4.316;2023-08-06T13:19:07;11.73;;;2.42;;
21786;SDS011;11055;50.870;4.316;2023-08-06T13:21:35;9.60;;;2.15;;
21786;SDS011;11055;50.870;4.316;2023-08-06T13:24:16;5.97;;;2.05;;
21786;SDS011;11055;50.870;4.316;2023-08-06T13:26:42;6.95;;;2.00;;
21786;SDS011;11055;50.870;4.316;2023-08-06T13:29:08;6.72;;;2.00;;
21786;SDS011;11055;50.870;4.316;2023-08-06T13:31:33;7.57;;;2.42;;
21786;SDS011;11055;50.870;4.316;2023-08-06T13:33:59;10.52;;;3.38;;
21786;SDS011;11055;50.870;4.316;2023-08-06T13:36:28;9.02;;;3.17;;
21786;SDS011;11055;50.870;4.316;2023-08-06T13:38:54;8.95;;;2.28;;
21786;SDS011;11055;50.870;4.316;2023-08-06T13:41:20;11.25;;;2.42;;
21786;SDS011;11055;50.870;4.316;2023-08-06T13:43:46;11.00;;;2.08;;
21786;SDS011;11055;50.870;4.316;2023-08-06T13:46:12;7.05;;;2.10;;
21786;SDS011;11055;50.870;4.316;2023-08-06T13:48:44;5.45;;;2.05;;
21786;SDS011;11055;50.870;4.316;2023-08-06T13:51:11;6.03;;;1.88;;
21786;SDS011;11055;50.870;4.316;2023-08-06T13:53:38;6.45;;;2.10;;
21786;SDS011;11055;50.870;4.316;2023-08-06T13:56:05;5.53;;;1.50;;
21786;SDS011;11055;50.870;4.316;2023-08-06T13:58:31;7.93;;;1.95;;
21786;SDS011;11055;50.870;4.316;2023-08-06T14:00:57;5.38;;;1.52;;
21786;SDS011;11055;50.870;4.316;2023-08-06T14:03:23;5.95;;;1.40;;
21786;SDS011;11055;50.870;4.316;2023-08-06T14:05:49;6.68;;;1.50;;
21786;SDS011;11055;50.870;4.316;2023-08-06T14:08:15;6.97;;;1.23;;
21786;SDS011;11055;50.870;4.316;2023-08-06T14:10:43;5.13;;;1.50;;
21786;SDS011;11055;50.870;4.316;2023-08-06T14:13:09;5.32;;;1.63;;
21786;SDS011;11055;50.870;4.316;2023-08-06T14:15:35;7.70;;;1.65;;
21786;SDS011;11055;50.870;4.316;2023-08-06T14:18:01;6.95;;;1.50;;
21786;SDS011;11055;50.870;4.316;2023-08-06T14:20:27;6.10;;;1.20;;
21786;SDS011;11055;50.870;4.316;2023-08-06T14:22:53;6.05;;;1.70;;
21786;SDS011;11055;50.870;4.316;2023-08-06T14:25:19;11.88;;;2.13;;
21786;SDS011;11055;50.870;4.316;2023-08-06T14:27:45;7.30;;;1.45;;
21786;SDS011;11055;50.870;4.316;2023-08-06T14:30:11;4.97;;;1.55;;
21786;SDS011;11055;50.870;4.316;2023-08-06T14:32:36;7.97;;;2.17;;
21786;SDS011;11055;50.870;4.316;2023-08-06T14:35:02;3.85;;;1.48;;
21786;SDS011;11055;50.870;4.316;2023-08-06T14:37:28;5.93;;;1.88;;
21786;SDS011;11055;50.870;4.316;2023-08-06T14:39:54;7.88;;;1.63;;
21786;SDS011;11055;50.870;4.316;2023-08-06T14:42:19;9.93;;;1.85;;
21786;SDS011;11055;50.870;4.316;2023-08-06T14:44:45;7.82;;;2.03;;
21786;SDS011;11055;50.870;4.316;2023-08-06T14:47:11;6.80;;;2.13;;
21786;SDS011;11055;50.870;4.316;2023-08-06T14:49:37;5.53;;;1.88;;